sensor_id;sensor_type;location;lat;lon;timestamp;P1;durP1;ratioP1;P2;durP2;ratioP2
35010;SDS011;21205;37.378;127.098;2023-02-28T12:18:02;1.00;;;0.90;;
35010;SDS011;21205;37.378;127.098;2023-02-28T12:26:07;1.17;;;0.88;;
35010;SDS011;21205;37.378;127.098;2023-02-28T12:28:53;0.50;;;0.50;;
35010;SDS011;21205;37.378;127.098;2023-02-28T12:31:34;0.60;;;0.60;;
35010;SDS011;21205;37.378;127.098;2023-02-28T12:34:06;0.40;;;0.40;;
35010;SDS011;21205;37.378;127.098;2023-02-28T12:36:42;0.93;;;0.75;;
35010;SDS011;21205;37.378;127.098;2023-02-28T12:42:05;0.95;;;0.50;;
35010;SDS011;21205;37.378;127.098;2023-02-28T12:44:44;0.52;;;0.40;;
35010;SDS011;21205;37.378;127.098;2023-02-28T12:47:19;0.80;;;0.50;;
35010;SDS011;21205;37.378;127.098;2023-02-28T12:49:51;0.55;;;0.55;;
35010;SDS011;21205;37.378;127.098;2023-02-28T12:52:31;0.50;;;0.40;;
35010;SDS011;21205;37.378;127.098;2023-02-28T12:58:48;0.63;;;0.40;;
35010;SDS011;21205;37.378;127.098;2023-02-28T13:10:04;0.40;;;0.40;;
35010;SDS011;21205;37.378;127.098;2023-02-28T13:12:35;1.02;;;0.40;;
35010;SDS011;21205;37.378;127.098;2023-02-28T13:15:22;0.40;;;0.40;;
35010;SDS011;21205;37.378;127.098;2023-02-28T13:17:57;0.60;;;0.40;;
35010;SDS011;21205;37.378;127.098;2023-02-28T13:20:29;0.43;;;0.43;;
35010;SDS011;21205;37.378;127.098;2023-02-28T13:23:16;0.20;;;0.20;;
35010;SDS011;21205;37.378;127.098;2023-02-28T13:26:15;0.30;;;0.30;;
35010;SDS011;21205;37.378;127.098;2023-02-28T13:31:22;0.28;;;0.28;;
35010;SDS011;21205;37.378;127.098;2023-02-28T13:36:31;1.25;;;0.82;;
35010;SDS011;21205;37.378;127.098;2023-02-28T13:39:02;3.33;;;0.47;;
35010;SDS011;21205;37.378;127.098;2023-02-28T13:41:52;0.30;;;0.30;;
35010;SDS011;21205;37.378;127.098;2023-02-28T13:44:22;0.40;;;0.40;;
35010;SDS011;21205;37.378;127.098;2023-02-28T13:57:36;1.23;;;0.28;;
35010;SDS011;21205;37.378;127.098;2023-02-28T14:06:30;0.30;;;0.30;;
35010;SDS011;21205;37.378;127.098;2023-02-28T14:09:03;0.10;;;0.10;;
35010;SDS011;21205;37.378;127.098;2023-02-28T14:11:47;0.30;;;0.30;;
35010;SDS011;21205;37.378;127.098;2023-02-28T14:17:07;0.40;;;0.20;;
35010;SDS011;21205;37.378;127.098;2023-02-28T14:19:45;0.38;;;0.30;;
35010;SDS011;21205;37.378;127.098;2023-02-28T14:28:04;1.00;;;0.47;;
35010;SDS011;21205;37.378;127.098;2023-02-28T14:36:08;0.70;;;0.30;;
35010;SDS011;21205;37.378;127.098;2023-02-28T14:41:32;0.20;;;0.20;;
35010;SDS011;21205;37.378;127.098;2023-02-28T14:44:20;0.30;;;0.30;;
35010;SDS011;21205;37.378;127.098;2023-02-28T14:46:53;0.38;;;0.35;;
35010;SDS011;21205;37.378;127.098;2023-02-28T14:54:42;0.30;;;0.30;;
35010;SDS011;21205;37.378;127.098;2023-02-28T14:59:57;0.17;;;0.17;;
35010;SDS011;21205;37.378;127.098;2023-02-28T15:02:29;0.40;;;0.40;;
35010;SDS011;21205;37.378;127.098;2023-02-28T15:07:44;0.20;;;0.20;;
35010;SDS011;21205;37.378;127.098;2023-02-28T15:12:56;0.20;;;0.20;;
35010;SDS011;21205;37.378;127.098;2023-02-28T15:26:30;0.40;;;0.40;;
35010;SDS011;21205;37.378;127.098;2023-02-28T15:29:05;0.20;;;0.20;;
35010;SDS011;21205;37.378;127.098;2023-02-28T15:31:41;0.40;;;0.40;;
35010;SDS011;21205;37.378;127.098;2023-02-28T15:34:40;0.30;;;0.30;;
35010;SDS011;21205;37.378;127.098;2023-02-28T15:40:36;0.30;;;0.30;;
35010;SDS011;21205;37.378;127.098;2023-02-28T15:46:04;2.38;;;0.30;;
35010;SDS011;21205;37.378;127.098;2023-02-28T15:48:51;0.20;;;0.20;;
35010;SDS011;21205;37.378;127.098;2023-02-28T15:51:33;0.25;;;0.25;;
35010;SDS011;21205;37.378;127.098;2023-02-28T15:56:43;0.20;;;0.20;;
35010;SDS011;21205;37.378;127.098;2023-02-28T15:59:20;0.28;;;0.28;;
35010;SDS011;21205;37.378;127.098;2023-02-28T16:02:03;0.30;;;0.30;;
35010;SDS011;21205;37.378;127.098;2023-02-28T16:05:02;0.30;;;0.30;;
35010;SDS011;21205;37.378;127.098;2023-02-28T16:07:42;1.23;;;0.20;;
35010;SDS011;21205;37.378;127.098;2023-02-28T16:10:12;0.43;;;0.30;;
35010;SDS011;21205;37.378;127.098;2023-02-28T16:12:43;0.20;;;0.20;;
35010;SDS011;21205;37.378;127.098;2023-02-28T16:15:20;0.43;;;0.22;;
35010;SDS011;21205;37.378;127.098;2023-02-28T16:17:58;0.30;;;0.30;;
35010;SDS011;21205;37.378;127.098;2023-02-28T16:20:29;0.20;;;0.20;;
35010;SDS011;21205;37.378;127.098;2023-02-28T16:22:59;0.30;;;0.30;;
35010;SDS011;21205;37.378;127.098;2023-02-28T16:25:38;0.38;;;0.20;;
35010;SDS011;21205;37.378;127.098;2023-02-28T16:28:15;0.20;;;0.20;;
35010;SDS011;21205;37.378;127.098;2023-02-28T16:31:00;0.30;;;0.30;;
35010;SDS011;21205;37.378;127.098;2023-02-28T16:33:32;0.40;;;0.20;;
35010;SDS011;21205;37.378;127.098;2023-02-28T16:36:02;0.20;;;0.20;;
35010;SDS011;21205;37.378;127.098;2023-02-28T16:38:32;0.20;;;0.20;;
35010;SDS011;21205;37.378;127.098;2023-02-28T16:41:02;0.20;;;0.20;;
35010;SDS011;21205;37.378;127.098;2023-02-28T16:43:32;0.20;;;0.20;;
35010;SDS011;21205;37.378;127.098;2023-02-28T16:46:02;0.32;;;0.32;;
35010;SDS011;21205;37.378;127.098;2023-02-28T16:48:31;0.25;;;0.25;;
35010;SDS011;21205;37.378;127.098;2023-02-28T16:51:01;0.28;;;0.28;;
35010;SDS011;21205;37.378;127.098;2023-02-28T16:53:32;0.70;;;0.30;;
35010;SDS011;21205;37.378;127.098;2023-02-28T16:56:02;0.35;;;0.30;;
35010;SDS011;21205;37.378;127.098;2023-02-28T16:58:34;0.30;;;0.30;;
35010;SDS011;21205;37.378;127.098;2023-02-28T17:01:04;0.22;;;0.20;;
35010;SDS011;21205;37.378;127.098;2023-02-28T17:03:34;0.30;;;0.30;;
35010;SDS011;21205;37.378;127.098;2023-02-28T17:06:05;0.20;;;0.20;;
35010;SDS011;21205;37.378;127.098;2023-02-28T17:08:44;0.30;;;0.30;;
35010;SDS011;21205;37.378;127.098;2023-02-28T17:11:14;0.57;;;0.40;;
35010;SDS011;21205;37.378;127.098;2023-02-28T17:13:44;0.30;;;0.30;;
35010;SDS011;21205;37.378;127.098;2023-02-28T17:19:04;5.78;;;0.30;;
35010;SDS011;21205;37.378;127.098;2023-02-28T17:21:35;0.28;;;0.28;;
35010;SDS011;21205;37.378;127.098;2023-02-28T17:24:05;0.20;;;0.20;;
35010;SDS011;21205;37.378;127.098;2023-02-28T17:26:39;0.40;;;0.40;;
35010;SDS011;21205;37.378;127.098;2023-02-28T17:29:19;0.52;;;0.40;;
35010;SDS011;21205;37.378;127.098;2023-02-28T17:31:50;0.20;;;0.20;;
35010;SDS011;21205;37.378;127.098;2023-02-28T17:34:19;0.20;;;0.20;;
35010;SDS011;21205;37.378;127.098;2023-02-28T17:36:50;0.20;;;0.20;;
35010;SDS011;21205;37.378;127.098;2023-02-28T17:39:20;0.30;;;0.30;;
35010;SDS011;21205;37.378;127.098;2023-02-28T17:44:23;0.20;;;0.20;;
35010;SDS011;21205;37.378;127.098;2023-02-28T17:46:54;0.30;;;0.30;;
35010;SDS011;21205;37.378;127.098;2023-02-28T17:49:24;0.20;;;0.20;;
35010;SDS011;21205;37.378;127.098;2023-02-28T17:51:54;0.40;;;0.40;;
35010;SDS011;21205;37.378;127.098;2023-02-28T17:54:24;0.20;;;0.20;;
35010;SDS011;21205;37.378;127.098;2023-02-28T17:56:53;0.32;;;0.32;;
35010;SDS011;21205;37.378;127.098;2023-02-28T17:59:23;0.20;;;0.20;;
35010;SDS011;21205;37.378;127.098;2023-02-28T18:01:53;0.30;;;0.30;;
35010;SDS011;21205;37.378;127.098;2023-02-28T18:04:23;0.47;;;0.40;;
35010;SDS011;21205;37.378;127.098;2023-02-28T18:06:55;0.30;;;0.22;;
35010;SDS011;21205;37.378;127.098;2023-02-28T18:09:28;0.30;;;0.30;;
35010;SDS011;21205;37.378;127.098;2023-02-28T18:11:57;0.20;;;0.20;;
35010;SDS011;21205;37.378;127.098;2023-02-28T18:14:27;0.28;;;0.28;;
35010;SDS011;21205;37.378;127.098;2023-02-28T18:16:57;0.30;;;0.30;;
35010;SDS011;21205;37.378;127.098;2023-02-28T18:19:27;0.20;;;0.20;;
35010;SDS011;21205;37.378;127.098;2023-02-28T18:21:57;0.40;;;0.40;;
35010;SDS011;21205;37.378;127.098;2023-02-28T18:24:27;0.40;;;0.30;;
35010;SDS011;21205;37.378;127.098;2023-02-28T18:26:57;0.43;;;0.43;;
35010;SDS011;21205;37.378;127.098;2023-02-28T18:29:27;0.35;;;0.30;;
35010;SDS011;21205;37.378;127.098;2023-02-28T18:31:57;0.30;;;0.30;;
35010;SDS011;21205;37.378;127.098;2023-02-28T18:34:29;0.30;;;0.30;;
35010;SDS011;21205;37.378;127.098;2023-02-28T18:36:59;0.30;;;0.30;;
35010;SDS011;21205;37.378;127.098;2023-02-28T18:39:29;0.30;;;0.30;;
35010;SDS011;21205;37.378;127.098;2023-02-28T18:42:00;0.30;;;0.30;;
35010;SDS011;21205;37.378;127.098;2023-02-28T18:44:30;0.28;;;0.28;;
35010;SDS011;21205;37.378;127.098;2023-02-28T18:47:00;0.63;;;0.30;;
35010;SDS011;21205;37.378;127.098;2023-02-28T18:49:32;0.40;;;0.38;;
35010;SDS011;21205;37.378;127.098;2023-02-28T18:52:02;0.50;;;0.50;;
35010;SDS011;21205;37.378;127.098;2023-02-28T18:54:32;0.30;;;0.28;;
35010;SDS011;21205;37.378;127.098;2023-02-28T18:57:03;0.30;;;0.30;;
35010;SDS011;21205;37.378;127.098;2023-02-28T18:59:33;0.30;;;0.30;;
35010;SDS011;21205;37.378;127.098;2023-02-28T19:02:03;0.30;;;0.30;;
35010;SDS011;21205;37.378;127.098;2023-02-28T19:04:33;0.30;;;0.30;;
35010;SDS011;21205;37.378;127.098;2023-02-28T19:07:03;0.85;;;0.43;;
35010;SDS011;21205;37.378;127.098;2023-02-28T19:09:33;0.40;;;0.30;;
35010;SDS011;21205;37.378;127.098;2023-02-28T19:12:03;0.30;;;0.20;;
35010;SDS011;21205;37.378;127.098;2023-02-28T19:14:33;0.38;;;0.30;;
35010;SDS011;21205;37.378;127.098;2023-02-28T19:17:03;0.38;;;0.30;;
35010;SDS011;21205;37.378;127.098;2023-02-28T19:19:32;0.52;;;0.20;;
35010;SDS011;21205;37.378;127.098;2023-02-28T19:22:02;0.30;;;0.20;;
35010;SDS011;21205;37.378;127.098;2023-02-28T19:24:32;0.47;;;0.40;;
35010;SDS011;21205;37.378;127.098;2023-02-28T19:27:02;0.32;;;0.30;;
35010;SDS011;21205;37.378;127.098;2023-02-28T19:29:31;0.20;;;0.20;;
35010;SDS011;21205;37.378;127.098;2023-02-28T19:32:01;0.30;;;0.30;;
35010;SDS011;21205;37.378;127.098;2023-02-28T19:34:31;0.35;;;0.35;;
35010;SDS011;21205;37.378;127.098;2023-02-28T19:37:01;0.22;;;0.22;;
35010;SDS011;21205;37.378;127.098;2023-02-28T19:39:31;0.40;;;0.40;;
35010;SDS011;21205;37.378;127.098;2023-02-28T19:42:14;0.30;;;0.30;;
35010;SDS011;21205;37.378;127.098;2023-02-28T19:44:45;0.43;;;0.30;;
35010;SDS011;21205;37.378;127.098;2023-02-28T19:47:15;0.40;;;0.40;;
35010;SDS011;21205;37.378;127.098;2023-02-28T19:49:45;0.45;;;0.30;;
35010;SDS011;21205;37.378;127.098;2023-02-28T19:52:14;0.20;;;0.20;;
35010;SDS011;21205;37.378;127.098;2023-02-28T19:54:44;0.20;;;0.20;;
35010;SDS011;21205;37.378;127.098;2023-02-28T19:57:14;0.25;;;0.25;;
35010;SDS011;21205;37.378;127.098;2023-02-28T19:59:44;0.22;;;0.20;;
35010;SDS011;21205;37.378;127.098;2023-02-28T20:02:15;0.93;;;0.40;;
35010;SDS011;21205;37.378;127.098;2023-02-28T20:04:47;0.30;;;0.30;;
35010;SDS011;21205;37.378;127.098;2023-02-28T20:07:18;0.30;;;0.30;;
35010;SDS011;21205;37.378;127.098;2023-02-28T20:09:48;0.30;;;0.30;;
35010;SDS011;21205;37.378;127.098;2023-02-28T20:12:18;0.25;;;0.20;;
35010;SDS011;21205;37.378;127.098;2023-02-28T20:14:51;0.30;;;0.30;;
35010;SDS011;21205;37.378;127.098;2023-02-28T20:17:25;0.45;;;0.30;;
35010;SDS011;21205;37.378;127.098;2023-02-28T20:19:56;0.30;;;0.30;;
35010;SDS011;21205;37.378;127.098;2023-02-28T20:22:25;0.30;;;0.30;;
35010;SDS011;21205;37.378;127.098;2023-02-28T20:24:55;0.38;;;0.38;;
35010;SDS011;21205;37.378;127.098;2023-02-28T20:27:25;0.50;;;0.40;;
35010;SDS011;21205;37.378;127.098;2023-02-28T20:29:55;1.98;;;0.50;;
35010;SDS011;21205;37.378;127.098;2023-02-28T20:32:25;0.30;;;0.30;;
35010;SDS011;21205;37.378;127.098;2023-02-28T20:34:54;0.38;;;0.38;;
35010;SDS011;21205;37.378;127.098;2023-02-28T20:37:25;0.30;;;0.30;;
35010;SDS011;21205;37.378;127.098;2023-02-28T20:39:55;0.30;;;0.30;;
35010;SDS011;21205;37.378;127.098;2023-02-28T20:42:25;0.65;;;0.30;;
35010;SDS011;21205;37.378;127.098;2023-02-28T20:44:55;0.35;;;0.32;;
35010;SDS011;21205;37.378;127.098;2023-02-28T20:47:24;0.30;;;0.30;;
35010;SDS011;21205;37.378;127.098;2023-02-28T20:49:54;0.90;;;0.40;;
35010;SDS011;21205;37.378;127.098;2023-02-28T20:52:24;0.40;;;0.40;;
35010;SDS011;21205;37.378;127.098;2023-02-28T20:54:53;0.30;;;0.30;;
35010;SDS011;21205;37.378;127.098;2023-02-28T20:57:23;0.30;;;0.30;;
35010;SDS011;21205;37.378;127.098;2023-02-28T20:59:56;0.20;;;0.20;;
35010;SDS011;21205;37.378;127.098;2023-02-28T21:02:25;0.43;;;0.32;;
35010;SDS011;21205;37.378;127.098;2023-02-28T21:04:55;0.22;;;0.22;;
35010;SDS011;21205;37.378;127.098;2023-02-28T21:07:26;0.47;;;0.47;;
35010;SDS011;21205;37.378;127.098;2023-02-28T21:09:56;0.57;;;0.47;;
35010;SDS011;21205;37.378;127.098;2023-02-28T21:12:26;0.50;;;0.50;;
35010;SDS011;21205;37.378;127.098;2023-02-28T21:14:56;0.55;;;0.40;;
35010;SDS011;21205;37.378;127.098;2023-02-28T21:17:26;0.50;;;0.50;;
35010;SDS011;21205;37.378;127.098;2023-02-28T21:19:56;0.47;;;0.40;;
35010;SDS011;21205;37.378;127.098;2023-02-28T21:22:26;0.57;;;0.40;;
35010;SDS011;21205;37.378;127.098;2023-02-28T21:24:56;0.75;;;0.50;;
35010;SDS011;21205;37.378;127.098;2023-02-28T21:27:25;0.73;;;0.40;;
35010;SDS011;21205;37.378;127.098;2023-02-28T21:29:55;0.32;;;0.32;;
35010;SDS011;21205;37.378;127.098;2023-02-28T21:32:25;0.57;;;0.45;;
35010;SDS011;21205;37.378;127.098;2023-02-28T21:34:54;0.38;;;0.35;;
35010;SDS011;21205;37.378;127.098;2023-02-28T21:37:24;0.68;;;0.68;;
35010;SDS011;21205;37.378;127.098;2023-02-28T21:39:54;0.35;;;0.35;;
35010;SDS011;21205;37.378;127.098;2023-02-28T21:42:23;0.45;;;0.45;;
35010;SDS011;21205;37.378;127.098;2023-02-28T21:44:53;0.38;;;0.38;;
35010;SDS011;21205;37.378;127.098;2023-02-28T21:47:24;0.30;;;0.30;;
35010;SDS011;21205;37.378;127.098;2023-02-28T21:49:57;0.50;;;0.50;;
35010;SDS011;21205;37.378;127.098;2023-02-28T21:52:27;2.85;;;0.40;;
35010;SDS011;21205;37.378;127.098;2023-02-28T21:54:57;0.40;;;0.40;;
35010;SDS011;21205;37.378;127.098;2023-02-28T21:57:26;0.30;;;0.30;;
35010;SDS011;21205;37.378;127.098;2023-02-28T21:59:57;0.40;;;0.40;;
35010;SDS011;21205;37.378;127.098;2023-02-28T22:02:27;0.32;;;0.32;;
35010;SDS011;21205;37.378;127.098;2023-02-28T22:04:57;0.68;;;0.40;;
35010;SDS011;21205;37.378;127.098;2023-02-28T22:07:30;0.52;;;0.40;;
35010;SDS011;21205;37.378;127.098;2023-02-28T22:10:00;0.32;;;0.30;;
35010;SDS011;21205;37.378;127.098;2023-02-28T22:12:30;0.50;;;0.50;;
35010;SDS011;21205;37.378;127.098;2023-02-28T22:14:59;0.30;;;0.30;;
35010;SDS011;21205;37.378;127.098;2023-02-28T22:17:29;0.63;;;0.32;;
35010;SDS011;21205;37.378;127.098;2023-02-28T22:19:59;0.55;;;0.55;;
35010;SDS011;21205;37.378;127.098;2023-02-28T22:22:28;0.60;;;0.60;;
35010;SDS011;21205;37.378;127.098;2023-02-28T22:24:58;0.70;;;0.52;;
35010;SDS011;21205;37.378;127.098;2023-02-28T22:27:28;0.65;;;0.50;;
35010;SDS011;21205;37.378;127.098;2023-02-28T22:29:57;0.35;;;0.30;;
35010;SDS011;21205;37.378;127.098;2023-02-28T22:32:27;0.50;;;0.50;;
35010;SDS011;21205;37.378;127.098;2023-02-28T22:34:57;0.40;;;0.40;;
35010;SDS011;21205;37.378;127.098;2023-02-28T22:37:26;0.47;;;0.47;;
35010;SDS011;21205;37.378;127.098;2023-02-28T22:39:56;0.40;;;0.40;;
35010;SDS011;21205;37.378;127.098;2023-02-28T22:42:26;0.63;;;0.55;;
35010;SDS011;21205;37.378;127.098;2023-02-28T22:44:55;0.47;;;0.40;;
35010;SDS011;21205;37.378;127.098;2023-02-28T22:47:25;0.55;;;0.40;;
35010;SDS011;21205;37.378;127.098;2023-02-28T22:49:54;0.40;;;0.40;;
35010;SDS011;21205;37.378;127.098;2023-02-28T22:52:24;0.43;;;0.40;;
35010;SDS011;21205;37.378;127.098;2023-02-28T22:54:55;0.40;;;0.40;;
35010;SDS011;21205;37.378;127.098;2023-02-28T22:57:26;0.65;;;0.40;;
35010;SDS011;21205;37.378;127.098;2023-02-28T22:59:55;0.30;;;0.30;;
35010;SDS011;21205;37.378;127.098;2023-02-28T23:02:25;0.30;;;0.30;;
35010;SDS011;21205;37.378;127.098;2023-02-28T23:04:54;0.40;;;0.40;;
35010;SDS011;21205;37.378;127.098;2023-02-28T23:07:24;0.90;;;0.60;;
35010;SDS011;21205;37.378;127.098;2023-02-28T23:09:54;0.80;;;0.70;;
35010;SDS011;21205;37.378;127.098;2023-02-28T23:12:24;1.08;;;0.88;;
35010;SDS011;21205;37.378;127.098;2023-02-28T23:14:54;0.80;;;0.80;;
35010;SDS011;21205;37.378;127.098;2023-02-28T23:17:24;0.70;;;0.43;;
35010;SDS011;21205;37.378;127.098;2023-02-28T23:19:53;1.45;;;1.00;;
35010;SDS011;21205;37.378;127.098;2023-02-28T23:22:23;0.75;;;0.75;;
35010;SDS011;21205;37.378;127.098;2023-02-28T23:24:53;3.05;;;1.20;;
35010;SDS011;21205;37.378;127.098;2023-02-28T23:27:22;3.22;;;1.00;;
35010;SDS011;21205;37.378;127.098;2023-02-28T23:29:52;5.88;;;1.00;;
35010;SDS011;21205;37.378;127.098;2023-02-28T23:32:21;3.13;;;1.10;;
35010;SDS011;21205;37.378;127.098;2023-02-28T23:34:51;16.08;;;0.95;;
35010;SDS011;21205;37.378;127.098;2023-02-28T23:37:22;7.18;;;0.90;;
35010;SDS011;21205;37.378;127.098;2023-02-28T23:39:52;3.83;;;1.10;;
35010;SDS011;21205;37.378;127.098;2023-02-28T23:42:21;5.88;;;1.50;;
35010;SDS011;21205;37.378;127.098;2023-02-28T23:44:51;3.90;;;1.02;;
35010;SDS011;21205;37.378;127.098;2023-02-28T23:47:21;3.13;;;1.10;;
35010;SDS011;21205;37.378;127.098;2023-02-28T23:49:50;1.75;;;1.48;;
35010;SDS011;21205;37.378;127.098;2023-02-28T23:52:20;6.50;;;1.20;;
35010;SDS011;21205;37.378;127.098;2023-02-28T23:54:50;1.35;;;1.08;;
35010;SDS011;21205;37.378;127.098;2023-02-28T23:57:20;2.90;;;1.25;;
35010;SDS011;21205;37.378;127.098;2023-02-28T23:59:50;2.65;;;0.90;;
